createdAt,value
2022-12-03T00:01:15.725Z,13.45
2022-12-03T00:03:43.373Z,12.63
2022-12-03T00:06:10.195Z,11.98
2022-12-03T00:08:36.881Z,13.15
2022-12-03T00:11:03.558Z,12.00
2022-12-03T00:13:30.234Z,8.20
2022-12-03T00:15:56.949Z,9.98
2022-12-03T00:18:23.697Z,10.63
2022-12-03T00:20:50.577Z,9.30
2022-12-03T00:23:17.285Z,11.38
2022-12-03T00:25:43.964Z,8.82
2022-12-03T00:28:10.618Z,12.10
2022-12-03T00:30:37.295Z,11.05
2022-12-03T00:33:04.113Z,11.07
2022-12-03T00:35:30.789Z,11.43
2022-12-03T00:37:57.455Z,11.07
2022-12-03T00:40:24.183Z,10.23
2022-12-03T00:42:50.878Z,11.50
2022-12-03T00:45:17.721Z,11.15
2022-12-03T00:47:44.523Z,11.35
2022-12-03T00:50:12.022Z,10.90
2022-12-03T00:55:05.874Z,9.98
2022-12-03T00:57:32.546Z,9.70
2022-12-03T00:59:59.207Z,8.13
2022-12-03T01:02:25.896Z,7.45
2022-12-03T01:04:52.882Z,8.65
2022-12-03T01:07:19.786Z,8.13
2022-12-03T01:09:46.503Z,8.52
2022-12-03T01:12:13.237Z,7.55
2022-12-03T01:14:40.405Z,7.97
2022-12-03T01:17:07.075Z,8.70
2022-12-03T01:19:35.240Z,8.68
2022-12-03T01:22:02.338Z,9.43
2022-12-03T01:24:29.024Z,9.15
2022-12-03T01:26:56.661Z,9.40
2022-12-03T01:29:23.981Z,9.10
2022-12-03T01:34:35.626Z,9.27
2022-12-03T01:37:02.440Z,6.40
2022-12-03T01:39:29.108Z,7.15
2022-12-03T01:41:58.641Z,6.13
2022-12-03T01:44:29.889Z,8.43
2022-12-03T01:46:58.773Z,7.18
2022-12-03T01:49:28.488Z,8.13
2022-12-03T01:51:56.579Z,7.82
2022-12-03T01:54:27.729Z,7.78
2022-12-03T01:56:55.867Z,9.52
2022-12-03T01:59:33.377Z,8.60
2022-12-03T02:02:11.956Z,9.00
2022-12-03T02:04:39.019Z,9.50
2022-12-03T02:07:24.737Z,8.00
2022-12-03T02:09:52.201Z,7.00
2022-12-03T02:14:48.364Z,7.28
2022-12-03T02:17:17.184Z,7.63
2022-12-03T02:19:44.090Z,7.90
2022-12-03T02:22:29.683Z,7.43
2022-12-03T02:24:59.572Z,7.22
2022-12-03T02:27:28.342Z,7.05
2022-12-03T02:29:55.656Z,7.35
2022-12-03T02:34:51.999Z,7.83
2022-12-03T02:37:31.925Z,6.53
2022-12-03T02:40:03.172Z,8.18
2022-12-03T02:42:36.113Z,8.38
2022-12-03T02:45:26.939Z,7.97
2022-12-03T02:48:06.567Z,8.90
2022-12-03T02:50:36.846Z,6.82
2022-12-03T02:53:09.730Z,7.07
2022-12-03T02:55:37.701Z,6.82
2022-12-03T02:58:05.719Z,6.90
2022-12-03T03:00:34.368Z,7.25
2022-12-03T03:03:03.579Z,6.65
2022-12-03T03:05:30.843Z,6.63
2022-12-03T03:10:25.983Z,7.10
2022-12-03T03:12:54.798Z,8.75
2022-12-03T03:15:23.344Z,9.65
2022-12-03T03:17:50.431Z,9.07
2022-12-03T03:20:17.597Z,9.05
2022-12-03T03:22:44.494Z,11.00
2022-12-03T03:25:15.299Z,11.45
2022-12-03T03:27:42.771Z,10.43
2022-12-03T03:30:11.181Z,9.63
2022-12-03T03:32:39.371Z,8.75
2022-12-03T03:35:10.065Z,8.93
2022-12-03T03:37:37.098Z,8.23
2022-12-03T03:40:04.233Z,6.80
2022-12-03T03:42:31.041Z,7.82
2022-12-03T03:44:58.635Z,7.78
2022-12-03T03:47:25.701Z,8.35
2022-12-03T03:49:53.051Z,8.15
2022-12-03T03:54:47.610Z,7.07
2022-12-03T03:57:14.490Z,6.88
2022-12-03T03:59:41.404Z,7.45
2022-12-03T04:02:18.818Z,6.45
2022-12-03T04:04:45.897Z,7.30
2022-12-03T04:07:12.730Z,7.13
2022-12-03T04:09:39.409Z,7.03
2022-12-03T04:12:24.880Z,5.88
2022-12-03T04:14:52.100Z,7.70
2022-12-03T04:17:19.274Z,7.18
2022-12-03T04:19:46.029Z,9.10
2022-12-03T04:22:31.339Z,5.82
2022-12-03T04:25:18.031Z,9.02
2022-12-03T04:28:03.511Z,10.15
2022-12-03T04:30:30.293Z,8.55
2022-12-03T04:33:23.280Z,8.20
2022-12-03T04:35:50.234Z,7.78
2022-12-03T04:38:17.021Z,8.52
2022-12-03T04:41:01.864Z,8.00
2022-12-03T04:43:29.280Z,7.82
2022-12-03T04:48:22.709Z,9.13
2022-12-03T04:50:49.754Z,7.63
2022-12-03T04:53:25.808Z,9.05
2022-12-03T04:56:21.405Z,9.52
2022-12-03T04:58:48.133Z,7.97
2022-12-03T05:01:15.850Z,7.30
2022-12-03T05:03:43.333Z,7.53
2022-12-03T05:06:10.060Z,7.75
2022-12-03T05:08:36.794Z,8.65
2022-12-03T05:11:03.493Z,8.07
2022-12-03T05:13:30.181Z,6.63
2022-12-03T05:15:56.877Z,7.35
2022-12-03T05:18:23.559Z,9.52
2022-12-03T05:20:53.480Z,7.80
2022-12-03T05:23:21.104Z,10.48
2022-12-03T05:28:14.699Z,10.50
2022-12-03T05:30:41.555Z,11.40
2022-12-03T05:33:08.349Z,11.40
2022-12-03T05:35:35.040Z,11.90
2022-12-03T05:38:01.857Z,8.63
2022-12-03T05:40:28.648Z,11.63
2022-12-03T05:42:56.747Z,8.30
2022-12-03T05:45:25.575Z,9.73
2022-12-03T05:47:53.838Z,9.77
2022-12-03T05:50:22.382Z,11.38
2022-12-03T05:52:49.627Z,11.98
2022-12-03T05:55:16.763Z,11.15
2022-12-03T05:57:43.994Z,10.93
2022-12-03T06:00:17.681Z,11.02
2022-12-03T06:02:44.596Z,10.82
2022-12-03T06:05:12.666Z,11.35
2022-12-03T06:07:39.508Z,11.93
2022-12-03T06:10:09.841Z,11.15
2022-12-03T06:12:36.603Z,11.82
2022-12-03T06:15:03.677Z,11.88
2022-12-03T06:17:30.488Z,12.82
2022-12-03T06:19:57.211Z,12.63
2022-12-03T06:22:24.029Z,10.27
2022-12-03T06:24:50.902Z,13.00
2022-12-03T06:27:17.690Z,11.88
2022-12-03T06:29:44.533Z,8.02
2022-12-03T06:32:11.253Z,11.73
2022-12-03T06:34:38.234Z,8.75
2022-12-03T06:37:04.946Z,9.82
2022-12-03T06:39:31.685Z,10.05
2022-12-03T06:42:01.569Z,11.25
2022-12-03T06:44:28.434Z,7.47
2022-12-03T06:46:55.235Z,11.23
2022-12-03T06:49:22.058Z,9.68
2022-12-03T06:51:48.782Z,7.95
2022-12-03T06:54:15.514Z,7.95
2022-12-03T06:56:45.344Z,9.85
2022-12-03T06:59:12.647Z,10.10
2022-12-03T07:01:39.649Z,11.13
2022-12-03T07:04:06.367Z,11.05
2022-12-03T07:06:33.068Z,10.63
2022-12-03T07:08:59.751Z,11.27
2022-12-03T07:11:31.077Z,10.35
2022-12-03T07:14:05.621Z,10.63
2022-12-03T07:16:33.192Z,10.60
2022-12-03T07:21:26.578Z,10.32
2022-12-03T07:23:53.253Z,11.68
2022-12-03T07:26:19.949Z,10.98
2022-12-03T07:28:48.193Z,8.75
2022-12-03T07:31:15.332Z,11.02
2022-12-03T07:33:42.386Z,12.85
2022-12-03T07:36:09.648Z,12.95
2022-12-03T07:38:36.597Z,11.75
2022-12-03T07:41:03.763Z,11.13
2022-12-03T07:43:30.537Z,11.27
2022-12-03T07:45:57.306Z,12.73
2022-12-03T07:48:24.022Z,13.30
2022-12-03T07:50:50.728Z,10.45
2022-12-03T07:53:17.636Z,12.02
2022-12-03T07:55:44.381Z,11.90
2022-12-03T07:58:12.167Z,11.27
2022-12-03T08:00:38.932Z,8.40
2022-12-03T08:03:05.707Z,12.23
2022-12-03T08:05:32.380Z,16.90
2022-12-03T08:07:59.136Z,14.65
2022-12-03T08:10:26.662Z,16.13
2022-12-03T08:12:53.966Z,13.10
2022-12-03T08:15:24.324Z,10.10
2022-12-03T08:17:56.700Z,10.55
2022-12-03T08:20:26.391Z,9.77
2022-12-03T08:22:53.757Z,9.93
2022-12-03T08:28:11.964Z,12.48
2022-12-03T08:30:38.829Z,12.15
2022-12-03T08:33:25.743Z,11.05
2022-12-03T08:35:52.529Z,12.00
2022-12-03T08:38:22.506Z,7.90
2022-12-03T08:40:51.388Z,10.85
2022-12-03T08:43:25.289Z,10.65
2022-12-03T08:45:54.364Z,9.57
2022-12-03T08:48:36.826Z,11.55
2022-12-03T08:51:20.884Z,11.57
2022-12-03T08:54:01.741Z,11.43
2022-12-03T08:56:31.636Z,10.70
2022-12-03T08:59:25.658Z,11.65
2022-12-03T09:01:56.054Z,11.00
2022-12-03T09:04:40.071Z,12.15
2022-12-03T09:07:06.788Z,11.82
2022-12-03T09:09:34.570Z,8.60
2022-12-03T09:12:02.142Z,10.40
2022-12-03T09:14:28.914Z,12.30
2022-12-03T09:16:56.617Z,8.05
2022-12-03T09:19:25.908Z,11.80
2022-12-03T09:21:53.946Z,11.30
2022-12-03T09:24:21.304Z,11.13
2022-12-03T09:29:14.773Z,11.77
2022-12-03T09:31:41.736Z,10.60
2022-12-03T09:34:10.697Z,11.48
2022-12-03T09:36:37.533Z,11.52
2022-12-03T09:39:04.394Z,11.52
2022-12-03T09:41:31.240Z,11.45
2022-12-03T09:44:05.940Z,12.18
2022-12-03T09:46:36.098Z,12.23
2022-12-03T09:49:05.029Z,11.63
2022-12-03T09:51:34.344Z,11.82
2022-12-03T09:54:03.642Z,12.02
2022-12-03T09:56:30.479Z,10.43
2022-12-03T09:58:57.717Z,11.88
2022-12-03T10:03:56.961Z,10.68
2022-12-03T10:06:23.932Z,12.43
2022-12-03T10:08:54.767Z,12.32
2022-12-03T10:11:25.811Z,12.48
2022-12-03T10:13:54.126Z,11.43
2022-12-03T10:16:21.337Z,14.35
2022-12-03T10:18:54.465Z,12.75
2022-12-03T10:21:25.866Z,11.23
2022-12-03T10:24:23.860Z,14.05
2022-12-03T10:26:52.729Z,11.90
2022-12-03T10:29:42.587Z,12.32
2022-12-03T10:32:11.652Z,10.55
2022-12-03T10:34:42.084Z,11.13
2022-12-03T10:37:12.138Z,12.85
2022-12-03T10:40:13.031Z,11.73
2022-12-03T10:42:41.012Z,11.95
2022-12-03T10:45:22.876Z,11.23
2022-12-03T10:48:04.876Z,11.23
2022-12-03T10:50:32.272Z,11.90
2022-12-03T10:55:52.314Z,7.57
2022-12-03T11:02:31.969Z,8.00
2022-12-03T11:04:58.688Z,7.93
2022-12-03T11:07:26.198Z,8.70
2022-12-03T11:09:55.365Z,9.18
2022-12-03T11:12:26.270Z,9.55
2022-12-03T11:14:56.652Z,8.82
2022-12-03T11:17:40.085Z,9.93
2022-12-03T11:20:25.186Z,9.25
2022-12-03T11:22:56.313Z,9.02
2022-12-03T11:25:26.011Z,9.20
2022-12-03T11:28:11.590Z,9.00
2022-12-03T11:30:53.638Z,8.60
2022-12-03T11:33:22.374Z,9.60
2022-12-03T11:36:03.000Z,11.55
2022-12-03T11:38:38.495Z,9.88
2022-12-03T11:41:14.574Z,8.13
2022-12-03T11:44:24.310Z,9.00
2022-12-03T11:46:51.178Z,9.02
2022-12-03T11:49:34.191Z,9.35
2022-12-03T11:52:04.195Z,9.45
2022-12-03T11:54:34.406Z,9.25
2022-12-03T11:57:02.534Z,9.52
2022-12-03T11:59:29.292Z,9.45
2022-12-03T12:01:56.015Z,10.23
2022-12-03T12:04:34.995Z,9.07
2022-12-03T12:07:02.340Z,9.73
2022-12-03T12:09:52.164Z,8.75
2022-12-03T12:12:29.195Z,10.85
2022-12-03T12:14:56.961Z,9.15
2022-12-03T12:17:35.555Z,9.55
2022-12-03T12:20:31.810Z,10.38
2022-12-03T12:23:23.002Z,10.93
2022-12-03T12:25:54.139Z,9.48
2022-12-03T12:28:21.427Z,10.48
2022-12-03T12:30:48.117Z,10.77
2022-12-03T12:33:23.279Z,10.40
2022-12-03T12:35:50.812Z,9.93
2022-12-03T12:40:50.133Z,10.05
2022-12-03T12:43:24.072Z,9.88
2022-12-03T12:45:55.093Z,9.70
2022-12-03T12:48:25.267Z,10.15
2022-12-03T12:51:07.751Z,11.15
2022-12-03T12:53:36.339Z,11.00
2022-12-03T12:56:24.799Z,9.70
2022-12-03T12:58:52.044Z,10.60
2022-12-03T13:01:32.159Z,11.00
2022-12-03T13:03:59.643Z,10.43
2022-12-03T13:08:55.320Z,10.52
2022-12-03T13:11:24.877Z,9.82
2022-12-03T13:13:52.447Z,10.88
2022-12-03T13:16:32.075Z,9.80
2022-12-03T13:19:00.632Z,11.60
2022-12-03T13:21:39.333Z,10.32
2022-12-03T13:24:24.958Z,9.48
2022-12-03T13:26:51.719Z,10.85
2022-12-03T13:29:20.248Z,10.15
2022-12-03T13:32:01.283Z,10.25
2022-12-03T13:34:33.284Z,10.20
2022-12-03T13:37:01.314Z,10.88
2022-12-03T13:39:35.805Z,10.27
2022-12-03T13:42:27.074Z,11.13
2022-12-03T13:44:54.261Z,10.45
2022-12-03T13:47:22.789Z,10.70
2022-12-03T13:49:55.599Z,10.95
2022-12-03T13:52:25.244Z,10.40
2022-12-03T13:54:55.054Z,10.40
2022-12-03T13:57:22.074Z,10.57
2022-12-03T13:59:48.984Z,10.43
2022-12-03T14:02:15.803Z,11.02
2022-12-03T14:04:42.588Z,11.07
2022-12-03T14:07:09.288Z,10.85
2022-12-03T14:09:35.995Z,10.95
2022-12-03T14:12:22.387Z,11.73
2022-12-03T14:14:49.471Z,11.05
2022-12-03T14:17:16.232Z,11.80
2022-12-03T14:19:43.180Z,10.27
2022-12-03T14:22:10.226Z,10.75
2022-12-03T14:24:37.816Z,10.52
2022-12-03T14:27:04.502Z,10.10
2022-12-03T14:29:31.229Z,8.02
2022-12-03T14:31:59.207Z,11.48
2022-12-03T14:34:26.003Z,11.70
2022-12-03T14:36:52.721Z,9.50
2022-12-03T14:39:19.440Z,11.25
2022-12-03T14:42:05.040Z,9.05
2022-12-03T14:44:31.699Z,11.52
2022-12-03T14:46:58.425Z,10.90
2022-12-03T14:49:25.274Z,11.68
2022-12-03T14:51:52.029Z,12.75
2022-12-03T14:54:18.780Z,8.73
2022-12-03T14:56:45.459Z,12.25
2022-12-03T14:59:12.141Z,12.57
2022-12-03T15:01:39.070Z,12.93
2022-12-03T15:04:06.140Z,12.88
2022-12-03T15:06:32.894Z,12.48
2022-12-03T15:08:59.633Z,9.35
2022-12-03T15:11:26.407Z,13.80
2022-12-03T15:13:53.086Z,13.50
2022-12-03T15:16:19.872Z,14.68
2022-12-03T15:18:46.591Z,20.48
2022-12-03T15:21:13.439Z,18.85
2022-12-03T15:23:40.119Z,22.52
2022-12-03T15:26:06.962Z,15.52
2022-12-03T15:28:33.842Z,22.67
2022-12-03T15:31:00.586Z,19.52
2022-12-03T15:33:27.308Z,20.25
2022-12-03T15:35:54.033Z,13.45
2022-12-03T15:38:20.735Z,20.63
2022-12-03T15:40:47.417Z,20.70
2022-12-03T15:43:14.221Z,17.02
2022-12-03T15:45:41.044Z,17.38
2022-12-03T15:48:07.895Z,14.77
2022-12-03T15:50:39.922Z,13.18
2022-12-03T15:53:07.124Z,12.85
2022-12-03T15:55:33.848Z,15.05
2022-12-03T15:58:03.534Z,13.40
2022-12-03T16:00:30.219Z,17.10
2022-12-03T16:02:57.028Z,16.08
2022-12-03T16:05:23.737Z,19.67
2022-12-03T16:07:50.517Z,21.23
2022-12-03T16:10:21.244Z,24.80
2022-12-03T16:12:48.377Z,22.42
2022-12-03T16:15:15.376Z,26.23
2022-12-03T16:17:42.082Z,17.80
2022-12-03T16:20:09.069Z,14.82
2022-12-03T16:22:35.774Z,17.63
2022-12-03T16:25:03.212Z,17.67
2022-12-03T16:27:29.896Z,20.58
2022-12-03T16:29:57.186Z,20.80
2022-12-03T16:32:24.366Z,16.02
2022-12-03T16:34:51.118Z,15.40
2022-12-03T16:37:17.788Z,16.17
2022-12-03T16:39:47.517Z,16.13
2022-12-03T16:42:17.235Z,17.73
2022-12-03T16:45:04.584Z,15.98
2022-12-03T16:47:34.166Z,17.58
2022-12-03T16:50:07.494Z,19.85
2022-12-03T16:52:35.099Z,26.27
2022-12-03T16:55:04.750Z,25.83
2022-12-03T16:57:33.819Z,24.10
2022-12-03T17:00:40.208Z,25.38
2022-12-03T17:03:06.976Z,23.02
2022-12-03T17:05:33.691Z,11.80
2022-12-03T17:08:00.517Z,11.88
2022-12-03T17:10:27.326Z,16.75
2022-12-03T17:13:09.382Z,16.10
2022-12-03T17:15:36.716Z,15.82
2022-12-03T17:18:03.840Z,15.65
2022-12-03T17:20:32.187Z,15.35
2022-12-03T17:22:59.906Z,15.52
2022-12-03T17:25:27.492Z,15.38
2022-12-03T17:27:54.642Z,14.00
2022-12-03T17:30:21.467Z,14.50
2022-12-03T17:32:50.267Z,15.30
2022-12-03T17:35:17.737Z,14.88
2022-12-03T17:37:44.480Z,16.15
2022-12-03T17:40:13.609Z,14.95
2022-12-03T17:42:40.335Z,14.77
2022-12-03T17:45:07.807Z,16.48
2022-12-03T17:47:34.615Z,16.90
2022-12-03T17:50:01.440Z,17.92
2022-12-03T17:52:28.120Z,21.98
2022-12-03T17:55:10.434Z,33.97
2022-12-03T17:57:38.778Z,37.05
2022-12-03T18:00:07.276Z,20.83
2022-12-03T18:02:39.071Z,24.38
2022-12-03T18:05:06.269Z,27.80
2022-12-03T18:07:33.012Z,28.55
2022-12-03T18:09:59.737Z,28.75
2022-12-03T18:12:26.509Z,28.67
2022-12-03T18:14:53.211Z,21.10
2022-12-03T18:17:19.891Z,30.23
2022-12-03T18:19:46.579Z,30.08
2022-12-03T18:22:13.416Z,31.05
2022-12-03T18:24:40.567Z,32.65
2022-12-03T18:27:07.261Z,34.33
2022-12-03T18:29:33.946Z,34.20
2022-12-03T18:32:00.751Z,23.75
2022-12-03T18:34:27.515Z,24.83
2022-12-03T18:36:54.277Z,22.98
2022-12-03T18:39:27.139Z,24.60
2022-12-03T18:41:54.125Z,23.25
2022-12-03T18:44:21.059Z,21.50
2022-12-03T18:46:55.392Z,26.15
2022-12-03T18:49:22.571Z,26.45
2022-12-03T18:51:52.132Z,25.88
2022-12-03T18:54:22.639Z,28.15
2022-12-03T18:56:49.394Z,26.55
2022-12-03T18:59:16.043Z,22.40
2022-12-03T19:01:42.779Z,20.85
2022-12-03T19:04:10.404Z,19.58
2022-12-03T19:06:37.080Z,21.52
2022-12-03T19:09:04.671Z,14.68
2022-12-03T19:11:33.882Z,21.20
2022-12-03T19:14:02.774Z,20.33
2022-12-03T19:16:29.540Z,15.80
2022-12-03T19:18:56.313Z,14.70
2022-12-03T19:21:23.249Z,16.65
2022-12-03T19:24:16.414Z,16.83
2022-12-03T19:26:36.632Z,16.20
2022-12-03T19:29:03.410Z,16.42
2022-12-03T19:31:33.257Z,16.10
2022-12-03T19:34:00.140Z,15.43
2022-12-03T19:36:29.243Z,14.98
2022-12-03T19:38:57.766Z,16.10
2022-12-03T19:41:30.656Z,16.55
2022-12-03T19:43:58.135Z,16.00
2022-12-03T19:48:54.007Z,17.35
2022-12-03T19:51:34.003Z,16.90
2022-12-03T19:54:01.287Z,14.68
2022-12-03T19:56:30.194Z,14.73
2022-12-03T19:58:57.460Z,17.27
2022-12-03T20:01:30.128Z,17.35
2022-12-03T20:03:59.188Z,15.95
2022-12-03T20:06:28.576Z,14.20
2022-12-03T20:08:59.937Z,16.25
2022-12-03T20:11:29.983Z,17.77
2022-12-03T20:13:59.340Z,17.15
2022-12-03T20:16:27.709Z,16.52
2022-12-03T20:18:59.882Z,15.75
2022-12-03T20:21:28.737Z,16.95
2022-12-03T20:23:55.477Z,16.50
2022-12-03T20:26:22.730Z,18.17
2022-12-03T20:31:19.144Z,19.40
2022-12-03T20:33:48.723Z,20.40
2022-12-03T20:36:18.249Z,21.02
2022-12-03T20:38:45.335Z,22.48
2022-12-03T20:41:15.329Z,20.70
2022-12-03T20:43:42.491Z,19.15
2022-12-03T20:46:13.749Z,19.15
2022-12-03T20:48:41.588Z,17.73
2022-12-03T20:51:11.712Z,17.02
2022-12-03T20:53:38.756Z,16.88
2022-12-03T20:56:06.930Z,16.65
2022-12-03T20:58:34.458Z,15.55
2022-12-03T21:01:24.440Z,18.17
2022-12-03T21:03:52.866Z,17.23
2022-12-03T21:06:22.239Z,17.42
2022-12-03T21:08:49.193Z,15.93
2022-12-03T21:11:21.604Z,15.75
2022-12-03T21:13:48.289Z,16.08
2022-12-03T21:16:18.891Z,15.93
2022-12-03T21:18:46.081Z,17.88
2022-12-03T21:21:14.487Z,15.98
2022-12-03T21:23:41.365Z,16.38
2022-12-03T21:26:16.948Z,16.90
2022-12-03T21:28:45.644Z,16.08
2022-12-03T21:31:25.184Z,15.15
2022-12-03T21:33:56.519Z,16.17
2022-12-03T21:36:25.040Z,14.73
2022-12-03T21:38:52.457Z,16.58
2022-12-03T21:43:45.997Z,15.82
2022-12-03T21:47:10.569Z,15.73
2022-12-03T21:49:02.095Z,16.50
2022-12-03T21:51:28.963Z,16.05
2022-12-03T21:53:55.661Z,17.75
2022-12-03T21:56:22.345Z,12.90
2022-12-03T21:58:49.021Z,12.98
2022-12-03T22:01:23.323Z,16.10
2022-12-03T22:03:50.613Z,17.48
2022-12-03T22:06:17.927Z,17.10
2022-12-03T22:11:14.989Z,16.75
2022-12-03T22:13:42.509Z,15.15
2022-12-03T22:16:12.370Z,15.80
2022-12-03T22:18:39.496Z,15.15
2022-12-03T22:21:08.136Z,15.90
2022-12-03T22:23:35.108Z,15.68
2022-12-03T22:26:05.318Z,15.13
2022-12-03T22:28:33.009Z,15.13
2022-12-03T22:30:59.804Z,15.82
2022-12-03T22:33:26.601Z,16.08
2022-12-03T22:36:02.010Z,17.58
2022-12-03T22:38:30.248Z,16.95
2022-12-03T22:40:57.135Z,16.70
2022-12-03T22:43:24.442Z,16.83
2022-12-03T22:48:22.981Z,16.67
2022-12-03T22:50:51.165Z,16.95
2022-12-03T22:53:18.681Z,17.20
2022-12-03T22:55:45.405Z,19.23
2022-12-03T22:59:03.336Z,13.43
2022-12-03T23:01:35.659Z,32.05
2022-12-03T23:04:02.901Z,23.30
2022-12-03T23:08:58.644Z,15.48
2022-12-03T23:11:25.811Z,15.23
2022-12-03T23:13:52.995Z,15.98
2022-12-03T23:16:22.998Z,16.00
2022-12-03T23:18:50.313Z,14.30
2022-12-03T23:21:23.917Z,15.43
2022-12-03T23:23:53.923Z,14.43
2022-12-03T23:26:20.872Z,11.65
2022-12-03T23:28:47.947Z,15.48
2022-12-03T23:31:35.023Z,13.68
2022-12-03T23:34:02.137Z,13.23
2022-12-03T23:36:30.255Z,14.07
2022-12-03T23:38:57.310Z,14.93
2022-12-03T23:41:24.959Z,14.85
2022-12-03T23:43:51.928Z,14.60
2022-12-03T23:46:24.629Z,14.48
2022-12-03T23:48:52.026Z,15.23
2022-12-03T23:53:47.506Z,14.32
2022-12-03T23:56:26.204Z,12.60
2022-12-03T23:58:52.941Z,13.52
